M I D A S
Marine Information and Data Acquisition System
Tripno 1459 of the Zeeleeuw from 2008-04-16 12:02:27 to 2008-04-16 15:10:35
Back to CruiseResearch ActivitiesStationsMapUnderway DataData graphs

EquipmentUnitsComment
TimeDGPSUTC
LatitudeDGPSDM.mWGS84
LongitudeDGPSDM.mWGS84
HeadingGyrodeg 
SOGDGPSknotsSpeed over ground
COGDGPSdegCourse over ground
DepthEcho soundermeters200 kHz
Missing or incorrect values are displayed as -999
Navigation data collected by the RV Zeeleeuw from 2008-04-16 07:38:16 to 2008-04-16 15:16:52
                                                                                    Next 1000 lines
Time Latitude Longitude Heading SOG COG Depth
2008-04-16 07:38:25 51°13.665 2°55.956 127.2 0.1 347 -999
2008-04-16 07:38:31 51°13.665 2°55.956 126.9 -999 83 7.7
2008-04-16 07:38:35 51°13.665 2°55.956 126.2 0.1 130 -999
2008-04-16 07:38:41 51°13.665 2°55.956 126 0.1 145 7.7
2008-04-16 07:38:46 51°13.665 2°55.956 125.9 -999 341 -999
2008-04-16 07:38:51 51°13.665 2°55.956 125.9 -999 166 -999
2008-04-16 07:38:56 51°13.665 2°55.956 125.9 -999 15 -999
2008-04-16 07:39:01 51°13.664 2°55.956 126.2 -999 343 -999
2008-04-16 07:39:05 51°13.663 2°55.956 126.3 -999 10 -999
2008-04-16 07:39:11 51°13.664 2°55.956 126.4 -999 36 7.6
2008-04-16 07:39:15 51°13.664 2°55.956 126.6 -999 222 -999
2008-04-16 07:39:21 51°13.665 2°55.956 126.8 -999 338 -999
2008-04-16 07:39:26 51°13.665 2°55.956 127 -999 210 -999
2008-04-16 07:39:31 51°13.666 2°55.956 127.3 -999 244 -999
2008-04-16 07:39:36 51°13.666 2°55.956 127.6 -999 179 -999
2008-04-16 07:39:41 51°13.666 2°55.956 127.6 -999 156 -999
2008-04-16 07:39:46 51°13.666 2°55.956 127.6 -999 54 -999
2008-04-16 07:39:51 51°13.666 2°55.956 127.6 -999 34 7.7
2008-04-16 07:39:55 51°13.666 2°55.956 127.6 -999 12 -999
2008-04-16 07:40:01 51°13.666 2°55.956 127.4 0.1 180 7.7
2008-04-16 07:40:06 51°13.665 2°55.956 126.9 0.1 192 7.7
2008-04-16 07:40:11 51°13.665 2°55.956 126.3 -999 187 7.7
2008-04-16 07:40:16 51°13.665 2°55.956 125.4 0.1 187 7.7
2008-04-16 07:40:21 51°13.665 2°55.956 124.5 0.1 179 -999
2008-04-16 07:40:26 51°13.665 2°55.956 123.6 -999 218 -999
2008-04-16 07:40:30 51°13.665 2°55.956 122.9 -999 216 7.7
2008-04-16 07:40:35 51°13.665 2°55.956 121.9 0.1 201 -999
2008-04-16 07:40:41 51°13.665 2°55.956 121.1 0.1 192 -999
2008-04-16 07:40:46 51°13.665 2°55.956 120 -999 208 -999
2008-04-16 07:40:51 51°13.664 2°55.956 119.1 0.1 200 7.7
2008-04-16 07:40:55 51°13.664 2°55.956 118.4 0.1 208 -999
2008-04-16 07:41:01 51°13.664 2°55.956 117.3 0.1 186 7.7
2008-04-16 07:41:06 51°13.664 2°55.956 116.5 0.1 192 -999
2008-04-16 07:41:11 51°13.664 2°55.955 115.6 -999 206 7.7
2008-04-16 07:41:16 51°13.664 2°55.955 114.8 0.1 239 7.8
2008-04-16 07:41:21 51°13.664 2°55.955 114.4 0.1 284 7.8
2008-04-16 07:41:26 51°13.664 2°55.954 113.9 0.3 295 7.8
2008-04-16 07:41:31 51°13.665 2°55.953 113.6 0.5 297 7.8
2008-04-16 07:41:36 51°13.665 2°55.952 113.3 0.7 298 7.8
2008-04-16 07:41:41 51°13.665 2°55.95 113.1 0.9 296 7.8
2008-04-16 07:41:46 51°13.666 2°55.948 113.1 1.1 298 7.8
2008-04-16 07:41:50 51°13.667 2°55.946 113.1 1.2 296 7.8
2008-04-16 07:41:56 51°13.668 2°55.943 113.1 1.5 299 7.8
2008-04-16 07:42:01 51°13.669 2°55.939 113.1 1.6 297 7.8
2008-04-16 07:42:06 51°13.67 2°55.936 113.1 1.8 298 -999
2008-04-16 07:42:11 51°13.671 2°55.932 112.6 1.9 295 -999
2008-04-16 07:42:16 51°13.672 2°55.928 111.8 2.1 296 -999
2008-04-16 07:42:21 51°13.674 2°55.923 110.5 2.2 293 -999
2008-04-16 07:42:26 51°13.675 2°55.918 109 2.4 292 -999
2008-04-16 07:42:31 51°13.676 2°55.913 107.6 2.6 290 -999
2008-04-16 07:42:36 51°13.677 2°55.907 106.2 2.8 288 -999
2008-04-16 07:42:41 51°13.679 2°55.9 104.9 3 286 -999
2008-04-16 07:42:46 51°13.68 2°55.894 103.6 3.1 285 -999
2008-04-16 07:42:51 51°13.681 2°55.887 102.5 3.3 284 -999
2008-04-16 07:42:56 51°13.682 2°55.88 101.5 3.3 282 -999
2008-04-16 07:43:01 51°13.683 2°55.872 100.2 3.3 282 -999
2008-04-16 07:43:06 51°13.683 2°55.865 99 3.2 280 -999
2008-04-16 07:43:11 51°13.684 2°55.858 97.6 3.2 279 -999
2008-04-16 07:43:16 51°13.685 2°55.851 96.3 3.2 278 -999
2008-04-16 07:43:21 51°13.685 2°55.844 94.9 3.2 276 -999
2008-04-16 07:43:26 51°13.686 2°55.838 93.4 3.1 275 -999
2008-04-16 07:43:31 51°13.686 2°55.831 92 3.1 274 -999
2008-04-16 07:43:36 51°13.686 2°55.824 90.7 3.2 274 -999
2008-04-16 07:43:41 51°13.686 2°55.817 89.6 3.2 273 -999
2008-04-16 07:43:46 51°13.687 2°55.81 88.5 3.1 272 -999
2008-04-16 07:43:51 51°13.687 2°55.803 87.3 3 271 -999
2008-04-16 07:43:56 51°13.687 2°55.797 86 2.9 271 -999
2008-04-16 07:44:01 51°13.687 2°55.79 84.9 2.8 270 -999
2008-04-16 07:44:06 51°13.687 2°55.785 84.1 2.7 270 -999
2008-04-16 07:44:11 51°13.686 2°55.779 83.4 2.5 268 -999
2008-04-16 07:44:16 51°13.686 2°55.773 82.2 2.4 269 -999
2008-04-16 07:44:21 51°13.686 2°55.769 81.2 2.2 268 -999
2008-04-16 07:44:26 51°13.686 2°55.764 80 2 268 -999
2008-04-16 07:44:31 51°13.686 2°55.76 79.1 1.9 267 12.6
2008-04-16 07:44:36 51°13.686 2°55.757 77.8 1.5 270 12.6
2008-04-16 07:44:41 51°13.687 2°55.754 76.1 1.3 267 12.7
2008-04-16 07:44:46 51°13.687 2°55.752 73.9 1 273 12.6
2008-04-16 07:44:51 51°13.687 2°55.75 71.8 0.9 274 12.7
2008-04-16 07:44:56 51°13.687 2°55.748 68.9 0.8 275 12.8
2008-04-16 07:45:01 51°13.686 2°55.747 65.9 0.6 272 12.9
2008-04-16 07:45:06 51°13.687 2°55.746 63 0.6 276 12.9
2008-04-16 07:45:10 51°13.687 2°55.745 60.3 0.5 276 13.1
2008-04-16 07:45:15 51°13.687 2°55.744 57.5 0.4 287 13
2008-04-16 07:45:21 51°13.687 2°55.743 55 0.4 300 13
2008-04-16 07:45:25 51°13.687 2°55.742 52.2 0.4 312 13
2008-04-16 07:45:30 51°13.688 2°55.742 49.7 0.4 334 13.1
2008-04-16 07:45:35 51°13.689 2°55.742 46.8 0.5 349 13.1
2008-04-16 07:45:40 51°13.689 2°55.742 43.6 0.7 1 13.2
2008-04-16 07:45:45 51°13.691 2°55.742 39.8 0.8 4 13.4
2008-04-16 07:45:50 51°13.692 2°55.742 35.5 1 5 13.5
2008-04-16 07:45:55 51°13.694 2°55.743 31.1 1.1 6 13.6
2008-04-16 07:46:00 51°13.695 2°55.743 26.6 1.2 4 13.9
2008-04-16 07:46:05 51°13.698 2°55.743 21.7 1.5 2 14
2008-04-16 07:46:09 51°13.7 2°55.743 16.7 1.9 359 14.7
2008-04-16 07:46:14 51°13.703 2°55.743 10.9 2.3 354 14.5
2008-04-16 07:46:19 51°13.707 2°55.742 4.1 2.9 351 14.5
2008-04-16 07:46:24 51°13.711 2°55.739 356.2 3.5 343 14.5
2008-04-16 07:46:29 51°13.717 2°55.737 348.6 4 341 14.4
2008-04-16 07:46:34 51°13.722 2°55.733 342.5 4.3 335 14.3
2008-04-16 07:46:39 51°13.727 2°55.728 337.1 4.1 332 13.6
2008-04-16 07:46:44 51°13.732 2°55.724 333.4 4.1 330 13.2
2008-04-16 07:46:49 51°13.737 2°55.719 331.3 4.3 330 12.4
2008-04-16 07:46:54 51°13.742 2°55.714 329.7 4.4 329 12.1
2008-04-16 07:46:59 51°13.748 2°55.709 328.9 4.5 329 12
2008-04-16 07:47:04 51°13.753 2°55.704 328.8 4.6 329 12.1
2008-04-16 07:47:09 51°13.759 2°55.698 328.8 4.8 329 12.1
2008-04-16 07:47:14 51°13.765 2°55.692 329.1 4.9 329 11.8
2008-04-16 07:47:19 51°13.771 2°55.686 329.3 5.1 329 11.9
2008-04-16 07:47:24 51°13.777 2°55.68 329.4 5.3 329 11.8
2008-04-16 07:47:29 51°13.783 2°55.674 329.6 5.4 329 11.7
2008-04-16 07:47:34 51°13.79 2°55.668 330.1 5.6 330 11.7
2008-04-16 07:47:38 51°13.796 2°55.663 330.8 5.8 330 11.6
2008-04-16 07:47:43 51°13.803 2°55.656 331.2 6 331 11.5
2008-04-16 07:47:49 51°13.812 2°55.648 331.6 6.2 331 11.5
2008-04-16 07:47:53 51°13.818 2°55.643 332.1 6.3 331 11.6
2008-04-16 07:47:58 51°13.826 2°55.636 332.7 6.4 332 11.7
2008-04-16 07:48:03 51°13.834 2°55.629 333 6.6 332 -999
2008-04-16 07:48:09 51°13.844 2°55.621 333.7 6.7 333 11.8
2008-04-16 07:48:13 51°13.85 2°55.616 334.2 6.8 333 11.8
2008-04-16 07:48:18 51°13.859 2°55.609 334.7 6.9 334 11.9
2008-04-16 07:48:23 51°13.868 2°55.602 335.5 7 334 12.2
2008-04-16 07:48:29 51°13.879 2°55.595 335.8 7.1 334 12.2
2008-04-16 07:48:34 51°13.889 2°55.589 336.3 7.2 335 -999
2008-04-16 07:48:39 51°13.898 2°55.583 336.5 7.3 335 12.6
2008-04-16 07:48:45 51°13.909 2°55.574 336.7 7.4 336 12.6
2008-04-16 07:48:50 51°13.918 2°55.567 337 7.4 337 -999
2008-04-16 07:48:56 51°13.929 2°55.559 336.9 7.5 335 -999
2008-04-16 07:49:01 51°13.939 2°55.552 336.7 7.6 337 -999
2008-04-16 07:49:06 51°13.949 2°55.545 336.8 7.6 335 12.6
2008-04-16 07:49:11 51°13.958 2°55.538 336.3 7.6 336 -999
2008-04-16 07:49:16 51°13.968 2°55.531 336.2 7.5 335 -999
2008-04-16 07:49:21 51°13.977 2°55.524 336.4 7.4 336 12.3
2008-04-16 07:49:26 51°13.986 2°55.517 336.6 7.3 336 -999
2008-04-16 07:49:31 51°13.995 2°55.511 336.7 7.2 335 -999
2008-04-16 07:49:36 51°14.004 2°55.504 336.2 7.1 335 -999
2008-04-16 07:49:41 51°14.013 2°55.498 335.8 6.9 334 12.7
2008-04-16 07:49:46 51°14.021 2°55.491 335.6 6.6 334 -999
2008-04-16 07:49:51 51°14.029 2°55.485 335.5 6.4 334 12.6
2008-04-16 07:49:56 51°14.037 2°55.479 335.2 6.2 333 -999
2008-04-16 07:50:01 51°14.044 2°55.473 335 6 333 -999
2008-04-16 07:50:06 51°14.051 2°55.466 334.7 5.8 333 -999
2008-04-16 07:50:11 51°14.058 2°55.46 334.5 5.7 333 -999
2008-04-16 07:50:16 51°14.065 2°55.455 334.5 5.6 333 -999
2008-04-16 07:50:21 51°14.071 2°55.449 334.4 5.5 333 -999
2008-04-16 07:50:26 51°14.078 2°55.444 334.4 5.4 333 -999
2008-04-16 07:50:31 51°14.085 2°55.439 334.4 5.4 333 -999
2008-04-16 07:50:36 51°14.092 2°55.434 334.5 5.3 333 -999
2008-04-16 07:50:41 51°14.098 2°55.429 334.8 5.2 333 -999
2008-04-16 07:50:46 51°14.105 2°55.423 334.9 5.2 333 12.5
2008-04-16 07:50:51 51°14.11 2°55.417 334.9 5.2 333 -999
2008-04-16 07:50:56 51°14.117 2°55.411 334.7 5.2 333 -999
2008-04-16 07:51:01 51°14.123 2°55.406 334.7 5.2 333 12.6
2008-04-16 07:51:06 51°14.13 2°55.401 334.7 5.3 333 -999
2008-04-16 07:51:11 51°14.136 2°55.395 334.6 5.4 332 12.7
2008-04-16 07:51:16 51°14.143 2°55.389 334 5.5 332 12.4
2008-04-16 07:51:21 51°14.15 2°55.384 333.7 5.7 331 -999
2008-04-16 07:51:26 51°14.157 2°55.378 332.9 5.7 330 -999
2008-04-16 07:51:31 51°14.165 2°55.372 331.8 5.9 330 -999
2008-04-16 07:51:36 51°14.172 2°55.365 331 5.9 328 -999
2008-04-16 07:51:41 51°14.179 2°55.358 330.7 6 328 -999
2008-04-16 07:51:46 51°14.185 2°55.351 330.2 6 328 12.5
2008-04-16 07:51:51 51°14.193 2°55.343 329.4 6.1 327 -999
2008-04-16 07:51:56 51°14.199 2°55.335 328.6 6.1 326 -999
2008-04-16 07:52:01 51°14.207 2°55.328 328 6.2 325 12.5
2008-04-16 07:52:06 51°14.214 2°55.319 327.3 6.3 324 -999
2008-04-16 07:52:11 51°14.221 2°55.311 326 6.5 322 12.5
2008-04-16 07:52:16 51°14.228 2°55.302 324.7 6.6 321 -999
2008-04-16 07:52:21 51°14.235 2°55.292 323.1 6.6 320 12.7
2008-04-16 07:52:26 51°14.242 2°55.282 322 6.7 318 12.4
2008-04-16 07:52:31 51°14.249 2°55.272 320 6.8 316 -999
2008-04-16 07:52:36 51°14.256 2°55.261 318.4 6.9 316 12.6
2008-04-16 07:52:41 51°14.263 2°55.25 317.2 6.9 314 11.8
2008-04-16 07:52:46 51°14.269 2°55.239 316.7 7 314 11.8
2008-04-16 07:52:51 51°14.276 2°55.228 315.6 7 313 12
2008-04-16 07:52:56 51°14.283 2°55.216 314.8 7.1 312 12.1
2008-04-16 07:53:01 51°14.289 2°55.204 313.9 7.1 311 12.1
2008-04-16 07:53:05 51°14.294 2°55.194 312.7 7.2 310 12
2008-04-16 07:53:10 51°14.301 2°55.182 311.4 7.2 309 11.7
2008-04-16 07:53:15 51°14.307 2°55.169 310.5 7.3 308 11.7
2008-04-16 07:53:20 51°14.313 2°55.157 309.8 7.3 308 11.8
2008-04-16 07:53:25 51°14.319 2°55.144 309.5 7.4 308 12
2008-04-16 07:53:30 51°14.325 2°55.131 309.3 7.4 308 12.2
2008-04-16 07:53:35 51°14.332 2°55.118 309.1 7.5 308 12.4
2008-04-16 07:53:40 51°14.338 2°55.104 309 7.6 308 12.4
2008-04-16 07:53:45 51°14.345 2°55.092 309.2 7.7 310 12.4
2008-04-16 07:53:50 51°14.352 2°55.078 309.9 7.8 310 12.5
2008-04-16 07:53:54 51°14.358 2°55.068 310.5 7.9 312 13
2008-04-16 07:54:00 51°14.367 2°55.052 311.5 8 313 12.8
2008-04-16 07:54:05 51°14.375 2°55.04 312.2 8.1 315 12.6
2008-04-16 07:54:09 51°14.382 2°55.029 313.1 8.4 315 12.2
2008-04-16 07:54:14 51°14.391 2°55.016 313.4 8.8 315 12
2008-04-16 07:54:19 51°14.399 2°55.002 312.8 8.9 315 12.1
2008-04-16 07:54:24 51°14.408 2°54.987 312.1 9.2 314 12
2008-04-16 07:54:29 51°14.417 2°54.972 311.1 9.4 313 12.1
2008-04-16 07:54:34 51°14.426 2°54.956 310 9.6 312 12.1
2008-04-16 07:54:39 51°14.435 2°54.94 309.1 9.9 311 12.3
2008-04-16 07:54:44 51°14.444 2°54.923 308.4 10.2 311 12.3
2008-04-16 07:54:49 51°14.454 2°54.905 308.3 10.7 310 12.3
2008-04-16 07:54:54 51°14.464 2°54.886 307.5 10.9 309 12.1
2008-04-16 07:54:58 51°14.471 2°54.87 306.5 11.2 308 12.1
2008-04-16 07:55:03 51°14.481 2°54.85 305.5 11.3 307 12.1
2008-04-16 07:55:09 51°14.492 2°54.825 304.6 11.5 306 11.9
2008-04-16 07:55:13 51°14.499 2°54.808 303.3 11.7 305 11.7
2008-04-16 07:55:18 51°14.509 2°54.787 302.4 11.8 305 11.8
2008-04-16 07:55:23 51°14.518 2°54.766 302.2 11.9 307 11.8
2008-04-16 07:55:28 51°14.528 2°54.744 303.5 12 307 11.8
2008-04-16 07:55:33 51°14.539 2°54.724 304.5 12 308 12
2008-04-16 07:55:38 51°14.549 2°54.703 305.3 12 308 11.6
2008-04-16 07:55:43 51°14.559 2°54.681 304.7 12.1 307 11.7
2008-04-16 07:55:48 51°14.57 2°54.661 305.1 12.2 309 11.7
2008-04-16 07:55:53 51°14.581 2°54.64 306.1 12.2 309 11.6
2008-04-16 07:55:58 51°14.592 2°54.619 307.3 12.2 311 11.7
2008-04-16 07:56:02 51°14.6 2°54.603 308.1 12.2 310 11.7
2008-04-16 07:56:08 51°14.613 2°54.578 307.6 12.2 310 11.6
2008-04-16 07:56:13 51°14.624 2°54.558 307.3 12.2 310 11.6
2008-04-16 07:56:17 51°14.633 2°54.541 306.9 12.1 309 11.6
2008-04-16 07:56:22 51°14.643 2°54.519 305.5 12.2 307 11.6
2008-04-16 07:56:28 51°14.655 2°54.494 305 12.2 307 11.8
2008-04-16 07:56:33 51°14.666 2°54.472 304.7 12.2 308 11.7
2008-04-16 07:56:37 51°14.674 2°54.456 305.5 12.2 310 11.6
2008-04-16 07:56:43 51°14.688 2°54.431 306.8 12.2 309 11.7
2008-04-16 07:56:48 51°14.698 2°54.41 306.8 12.3 310 11.8
2008-04-16 07:56:53 51°14.709 2°54.388 306.9 12.2 308 11.7
2008-04-16 07:56:57 51°14.716 2°54.371 304.5 12.1 305 11.6
2008-04-16 07:57:02 51°14.725 2°54.348 302.5 12 302 11.8
2008-04-16 07:57:07 51°14.733 2°54.325 298.6 12.1 299 11.7
2008-04-16 07:57:12 51°14.741 2°54.301 296.6 12 298 11.4
2008-04-16 07:57:18 51°14.75 2°54.273 294.9 12.1 296 11.5
2008-04-16 07:57:23 51°14.757 2°54.248 293.5 12 295 11.5
2008-04-16 07:57:28 51°14.763 2°54.224 291.7 12.1 293 11.6
2008-04-16 07:57:33 51°14.769 2°54.199 289.8 12 292 11.5
2008-04-16 07:57:37 51°14.774 2°54.179 289 12 291 11.4
2008-04-16 07:57:42 51°14.779 2°54.154 288 12 289 11.4
2008-04-16 07:57:47 51°14.783 2°54.129 285.1 11.9 286 11.3
2008-04-16 07:57:52 51°14.787 2°54.104 282.8 11.9 284 11.3
2008-04-16 07:57:57 51°14.791 2°54.078 281.1 12 283 11.4
2008-04-16 07:58:02 51°14.795 2°54.052 280.6 11.9 283 11.3
2008-04-16 07:58:08 51°14.8 2°54.021 280.6 12 284 11.1
2008-04-16 07:58:13 51°14.804 2°53.996 281 12 285 11.2
2008-04-16 07:58:17 51°14.808 2°53.975 282.2 12 285 11.2
2008-04-16 07:58:22 51°14.811 2°53.949 282.4 11.9 284 11.2
2008-04-16 07:58:28 51°14.816 2°53.919 281.5 11.9 284 11.1
2008-04-16 07:58:33 51°14.82 2°53.893 280.3 12 282 11.2
2008-04-16 07:58:37 51°14.822 2°53.872 279.9 12 282 11.2
2008-04-16 07:58:42 51°14.826 2°53.846 279.6 12 282 11.3
2008-04-16 07:58:48 51°14.83 2°53.815 279.7 12 283 11.4
2008-04-16 07:58:53 51°14.834 2°53.789 279.9 12 281 11.6
2008-04-16 07:58:57 51°14.836 2°53.768 279.6 12 282 11.1
2008-04-16 07:59:02 51°14.84 2°53.742 279.3 12 281 11.2
2008-04-16 07:59:08 51°14.844 2°53.711 278.9 12 281 11.2
2008-04-16 07:59:13 51°14.846 2°53.685 277.9 12 279 11.5
2008-04-16 07:59:17 51°14.848 2°53.664 276.4 12 278 11.5
2008-04-16 07:59:22 51°14.85 2°53.638 275.8 12 278 11.6
2008-04-16 07:59:28 51°14.853 2°53.606 275.7 12 278 11.6
2008-04-16 07:59:33 51°14.856 2°53.58 275.8 12 279 11.4
2008-04-16 07:59:37 51°14.858 2°53.559 276.3 12 279 11.4
2008-04-16 07:59:42 51°14.861 2°53.533 277.5 12 281 11.5
2008-04-16 07:59:48 51°14.865 2°53.502 278.6 12 281 11.8
2008-04-16 07:59:53 51°14.868 2°53.475 278.9 12 281 11.8
2008-04-16 07:59:57 51°14.87 2°53.455 278.9 12 280 11.8
2008-04-16 08:00:02 51°14.873 2°53.429 279.3 12 282 11.8
2008-04-16 08:00:08 51°14.878 2°53.397 280.3 12 282 11.8
2008-04-16 08:00:13 51°14.881 2°53.372 280.8 12 282 11.8
2008-04-16 08:00:17 51°14.884 2°53.351 280.8 12 282 12
2008-04-16 08:00:22 51°14.887 2°53.325 280.6 12 281 11.8
2008-04-16 08:00:27 51°14.89 2°53.299 280.7 11.9 281 11.9
2008-04-16 08:00:32 51°14.893 2°53.273 279.3 11.9 278 11.9
2008-04-16 08:00:37 51°14.894 2°53.247 276.8 11.9 276 12
2008-04-16 08:00:42 51°14.895 2°53.22 274.7 11.8 274 12
2008-04-16 08:00:47 51°14.895 2°53.194 272.1 11.8 271 11.9
2008-04-16 08:00:52 51°14.895 2°53.168 269.2 11.8 268 12.1
2008-04-16 08:00:57 51°14.894 2°53.142 267 11.9 266 12.1
2008-04-16 08:01:03 51°14.892 2°53.111 265.5 11.8 265 12.2
2008-04-16 08:01:08 51°14.89 2°53.085 263.8 11.8 263 12.2
2008-04-16 08:01:13 51°14.888 2°53.059 262.2 11.8 262 12.1
2008-04-16 08:01:17 51°14.886 2°53.038 261.1 11.9 263 12.1
2008-04-16 08:01:22 51°14.884 2°53.012 261.2 11.9 262 12.1
2008-04-16 08:01:28 51°14.882 2°52.98 262.3 11.9 265 12.1
2008-04-16 08:01:32 51°14.881 2°52.959 263.1 11.9 265 12
2008-04-16 08:01:37 51°14.881 2°52.933 265.4 12 269 12
2008-04-16 08:01:41 51°14.882 2°52.912 269.4 12 272 12
2008-04-16 08:01:47 51°14.883 2°52.88 271.2 12 273 11.9
2008-04-16 08:01:52 51°14.885 2°52.854 272.7 12 276 11.8
2008-04-16 08:01:56 51°14.886 2°52.832 273.9 12 275 11.8
2008-04-16 08:02:01 51°14.888 2°52.806 274.7 12 276 11.8
2008-04-16 08:02:06 51°14.89 2°52.78 275.8 12 277 11.8
2008-04-16 08:02:12 51°14.892 2°52.748 275.7 12 276 11.7
2008-04-16 08:02:17 51°14.893 2°52.722 274.6 12 276 11.6
2008-04-16 08:02:21 51°14.895 2°52.701 274.3 12 275 11.8
2008-04-16 08:02:26 51°14.896 2°52.674 274.1 12 275 11.8
2008-04-16 08:02:31 51°14.898 2°52.647 273.8 12 274 11.6
2008-04-16 08:02:37 51°14.899 2°52.616 273.5 12 275 11.7
2008-04-16 08:02:41 51°14.9 2°52.595 273.3 12 275 11.7
2008-04-16 08:02:47 51°14.902 2°52.563 273.4 12 275 11.6
2008-04-16 08:02:52 51°14.903 2°52.536 273.5 12 275 11.8
2008-04-16 08:02:56 51°14.904 2°52.515 273.2 12 274 11.9
2008-04-16 08:03:01 51°14.906 2°52.489 273.4 12 275 11.9
2008-04-16 08:03:07 51°14.907 2°52.457 273.3 12 274 11.8
2008-04-16 08:03:12 51°14.909 2°52.431 273.2 12 275 11.8
2008-04-16 08:03:16 51°14.909 2°52.41 272.1 11.9 272 11.9
2008-04-16 08:03:21 51°14.91 2°52.383 271.4 11.9 273 11.9
2008-04-16 08:03:27 51°14.91 2°52.351 270.9 11.9 272 11.9
2008-04-16 08:03:32 51°14.911 2°52.325 270.3 11.9 272 12
2008-04-16 08:03:36 51°14.911 2°52.304 270.2 12 271 12.1
2008-04-16 08:03:41 51°14.912 2°52.277 270.2 12 272 12
2008-04-16 08:03:47 51°14.913 2°52.245 270.5 12 273 12
2008-04-16 08:03:52 51°14.913 2°52.219 270.7 12 272 12.2
2008-04-16 08:03:56 51°14.914 2°52.198 270.9 12 272 12.2
2008-04-16 08:04:01 51°14.914 2°52.171 270.9 12 272 12.1
2008-04-16 08:04:07 51°14.914 2°52.139 269.8 12 269 12.2
2008-04-16 08:04:12 51°14.914 2°52.113 269.3 12 271 12.3
2008-04-16 08:04:16 51°14.914 2°52.092 269.1 12 270 12.3
2008-04-16 08:04:21 51°14.915 2°52.065 269.2 12 271 12.2
2008-04-16 08:04:26 51°14.915 2°52.038 269.2 12 270 12.3
2008-04-16 08:04:32 51°14.915 2°52.007 269.7 12 270 12.3
2008-04-16 08:04:36 51°14.915 2°51.985 269.8 12 272 12.3
2008-04-16 08:04:41 51°14.915 2°51.959 269.3 12 269 12.4
2008-04-16 08:04:47 51°14.915 2°51.927 268.9 12 270 12.4
2008-04-16 08:04:51 51°14.914 2°51.906 267.9 12 268 12.5
2008-04-16 08:04:56 51°14.914 2°51.879 267.5 12 269 12.4
2008-04-16 08:05:01 51°14.913 2°51.853 266.6 12 267 12.5
2008-04-16 08:05:07 51°14.912 2°51.821 266.5 11.9 267 12.6
2008-04-16 08:05:12 51°14.91 2°51.795 264.8 11.9 263 12.6
2008-04-16 08:05:17 51°14.908 2°51.769 262 11.9 262 12.7
2008-04-16 08:05:21 51°14.906 2°51.749 260.4 11.9 260 12.7
2008-04-16 08:05:27 51°14.902 2°51.718 259 11.9 259 12.7
2008-04-16 08:05:32 51°14.898 2°51.692 257.5 11.9 258 12.8
2008-04-16 08:05:36 51°14.895 2°51.671 256.6 11.9 258 12.7
2008-04-16 08:05:41 51°14.892 2°51.646 256 11.9 256 12.7
2008-04-16 08:05:47 51°14.887 2°51.615 255.5 11.9 258 12.8
2008-04-16 08:05:52 51°14.883 2°51.59 256 11.9 256 12.8
2008-04-16 08:05:56 51°14.881 2°51.569 256.4 12 259 12.7
2008-04-16 08:06:01 51°14.877 2°51.543 256.9 11.9 258 12.7
2008-04-16 08:06:07 51°14.873 2°51.512 257.6 11.9 259 12.8
2008-04-16 08:06:12 51°14.87 2°51.486 257.5 11.9 259 12.8
2008-04-16 08:06:16 51°14.866 2°51.466 257.1 11.9 256 12.9
2008-04-16 08:06:21 51°14.864 2°51.44 257.6 11.9 260 12.9
2008-04-16 08:06:26 51°14.86 2°51.414 257.2 11.9 257 12.9
2008-04-16 08:06:32 51°14.856 2°51.384 257.1 11.9 258 13
2008-04-16 08:06:36 51°14.853 2°51.363 257.2 11.9 258 13
2008-04-16 08:06:41 51°14.85 2°51.337 257.1 11.9 258 12.9
2008-04-16 08:06:46 51°14.846 2°51.312 256.8 11.9 257 13
2008-04-16 08:06:51 51°14.843 2°51.286 257.3 11.9 258 13
2008-04-16 08:06:56 51°14.839 2°51.26 256.9 11.9 258 13
2008-04-16 08:07:01 51°14.836 2°51.234 257 11.9 258 13
2008-04-16 08:07:07 51°14.831 2°51.204 256.4 11.9 255 13.1
2008-04-16 08:07:12 51°14.827 2°51.178 255.9 11.8 257 13
2008-04-16 08:07:17 51°14.822 2°51.154 253.9 11.8 253 13.1
2008-04-16 08:07:21 51°14.819 2°51.134 252.4 11.8 254 13.1
2008-04-16 08:07:27 51°14.812 2°51.104 251.2 11.8 251 13.1
2008-04-16 08:07:31 51°14.808 2°51.084 250.5 11.8 252 13.1
2008-04-16 08:07:37 51°14.802 2°51.054 251 11.7 253 13.2
2008-04-16 08:07:41 51°14.799 2°51.034 253.7 11.8 256 13.2
2008-04-16 08:07:46 51°14.795 2°51.009 254.7 11.7 253 13.1
2008-04-16 08:07:51 51°14.79 2°50.985 251.8 11.7 252 13.2
2008-04-16 08:07:56 51°14.783 2°50.961 249.5 11.6 247 13.2
2008-04-16 08:08:01 51°14.777 2°50.937 247.3 11.8 248 13.2
2008-04-16 08:08:07 51°14.769 2°50.908 246.1 11.7 246 13.2
2008-04-16 08:08:12 51°14.763 2°50.884 246 11.8 247 13.2
2008-04-16 08:08:16 51°14.758 2°50.865 247.4 11.8 249 13.2
2008-04-16 08:08:21 51°14.752 2°50.841 247.2 11.8 247 13.3
2008-04-16 08:08:26 51°14.746 2°50.817 246.8 11.7 248 13.3
2008-04-16 08:08:32 51°14.736 2°50.79 245.2 11.6 242 13.4
2008-04-16 08:08:37 51°14.729 2°50.769 242 11.1 240 13.3
2008-04-16 08:08:41 51°14.721 2°50.756 234.7 10 229 13.2
2008-04-16 08:08:46 51°14.713 2°50.741 230.4 9.1 230 13.3
2008-04-16 08:08:52 51°14.703 2°50.726 226 8.4 222 13.3
2008-04-16 08:08:56 51°14.697 2°50.717 223.3 7.8 224 13.4
2008-04-16 08:09:01 51°14.688 2°50.707 220.8 7.3 217 13.5
2008-04-16 08:09:07 51°14.68 2°50.696 218.9 7 219 13.4
2008-04-16 08:09:12 51°14.672 2°50.688 217.1 6.5 214 13.4
2008-04-16 08:09:16 51°14.667 2°50.682 215.5 6.1 215 13.4
2008-04-16 08:09:21 51°14.66 2°50.675 214.2 5.7 211 13.4
2008-04-16 08:09:27 51°14.652 2°50.668 212.5 5.3 211 13.4
2008-04-16 08:09:32 51°14.646 2°50.664 211.1 5 207 13.4
2008-04-16 08:09:37 51°14.64 2°50.659 209.7 4.8 208 13.3
2008-04-16 08:09:41 51°14.636 2°50.655 208.7 4.6 206 13.3
2008-04-16 08:09:47 51°14.63 2°50.649 208.7 4.3 208 13.3
2008-04-16 08:09:52 51°14.624 2°50.645 209.3 4.2 209 13.3
2008-04-16 08:09:56 51°14.621 2°50.641 211.2 4.1 210 13.2
2008-04-16 08:10:01 51°14.616 2°50.637 213.4 3.9 213 13.3
2008-04-16 08:10:06 51°14.612 2°50.632 216.1 3.8 216 13.2
2008-04-16 08:10:11 51°14.608 2°50.627 219.1 3.6 219 13.2
2008-04-16 08:10:16 51°14.604 2°50.622 222.3 3.4 223 13.2
2008-04-16 08:10:22 51°14.6 2°50.616 225.6 3.3 224 13.2
2008-04-16 08:10:27 51°14.598 2°50.61 229.3 3.2 232 13.1
2008-04-16 08:10:32 51°14.595 2°50.604 230.9 3.1 233 13.2
2008-04-16 08:10:36 51°14.593 2°50.6 233.6 3 233 13.1
2008-04-16 08:10:41 51°14.591 2°50.595 235 3 240 13.2
2008-04-16 08:10:47 51°14.588 2°50.588 235.9 2.9 234 13.2
2008-04-16 08:10:52 51°14.587 2°50.583 236.9 2.9 245 13.2
2008-04-16 08:10:56 51°14.585 2°50.578 237.2 2.9 236 13.2
2008-04-16 08:11:01 51°14.583 2°50.573 237.7 2.9 246 13.3
2008-04-16 08:11:06 51°14.581 2°50.568 238.1 2.8 235 13.2
2008-04-16 08:11:12 51°14.579 2°50.561 238.1 2.8 250 13.1
2008-04-16 08:11:17 51°14.577 2°50.555 238.2 2.8 238 13.2
2008-04-16 08:11:21 51°14.576 2°50.551 238.3 2.7 243 13.3
2008-04-16 08:11:26 51°14.574 2°50.546 238.2 2.7 240 13.1
2008-04-16 08:11:31 51°14.572 2°50.54 237.8 2.8 247 13.1
2008-04-16 08:11:37 51°14.57 2°50.534 237.7 2.7 236 13.2
2008-04-16 08:11:41 51°14.568 2°50.53 237.4 2.8 245 13.1
2008-04-16 08:11:46 51°14.566 2°50.525 236.9 2.7 237 13.1
2008-04-16 08:11:51 51°14.565 2°50.519 236.9 2.7 243 13.2
2008-04-16 08:11:57 51°14.562 2°50.514 236.4 2.7 235 13.2
2008-04-16 08:12:01 51°14.561 2°50.509 235.9 2.8 244 13.2
2008-04-16 08:12:06 51°14.559 2°50.504 235.5 2.7 237 13.2
2008-04-16 08:12:12 51°14.557 2°50.498 235.6 2.7 239 13.2
2008-04-16 08:12:16 51°14.555 2°50.493 235.1 2.7 239 13.2
2008-04-16 08:12:21 51°14.553 2°50.488 234.6 2.7 240 13.2
2008-04-16 08:12:27 51°14.551 2°50.483 234.3 2.7 236 13.2
2008-04-16 08:12:31 51°14.549 2°50.478 234.5 2.7 241 13.2
2008-04-16 08:12:36 51°14.547 2°50.473 235.3 2.7 241 13.1
2008-04-16 08:12:41 51°14.546 2°50.468 236.3 2.7 241 13.2
2008-04-16 08:12:47 51°14.544 2°50.461 237.3 2.7 245 13.2
2008-04-16 08:12:52 51°14.542 2°50.456 237.5 2.8 245 13.2
2008-04-16 08:12:56 51°14.541 2°50.452 237.9 2.7 241 13.2
2008-04-16 08:13:01 51°14.539 2°50.446 237.9 2.7 244 13.2
2008-04-16 08:13:07 51°14.537 2°50.44 237.8 2.7 242 13.2
2008-04-16 08:13:12 51°14.535 2°50.434 237.5 2.7 244 13.1
2008-04-16 08:13:16 51°14.534 2°50.43 237.3 2.7 242 13.2
2008-04-16 08:13:21 51°14.532 2°50.425 237.2 2.7 243 13.1
2008-04-16 08:13:26 51°14.53 2°50.419 236.8 2.7 245 13.1
2008-04-16 08:13:32 51°14.528 2°50.413 236.5 2.6 237 13.1
2008-04-16 08:13:36 51°14.527 2°50.409 236.5 2.7 246 13
2008-04-16 08:13:41 51°14.525 2°50.404 235.7 2.7 239 13.1
2008-04-16 08:13:47 51°14.523 2°50.397 235.7 2.7 242 13.1
2008-04-16 08:13:52 51°14.521 2°50.392 235.3 2.8 241 13
2008-04-16 08:13:56 51°14.519 2°50.388 234.9 2.7 240 13.1
2008-04-16 08:14:01 51°14.517 2°50.383 234.4 2.8 237 13.1
2008-04-16 08:14:07 51°14.515 2°50.376 234.4 2.9 239 13
2008-04-16 08:14:11 51°14.513 2°50.372 233.9 2.9 236 13
2008-04-16 08:14:16 51°14.511 2°50.367 233.6 2.9 241 13
2008-04-16 08:14:21 51°14.508 2°50.361 233 3 232 13
2008-04-16 08:14:26 51°14.506 2°50.355 232.9 3.1 240 12.9
2008-04-16 08:14:31 51°14.504 2°50.35 232.5 3 235 13.1
2008-04-16 08:14:36 51°14.502 2°50.344 232.8 3.1 237 13
2008-04-16 08:14:41 51°14.499 2°50.338 232.7 3.2 235 13
2008-04-16 08:14:47 51°14.496 2°50.331 233.6 3.2 239 12.9
2008-04-16 08:14:52 51°14.494 2°50.325 234.5 3.2 240 13
2008-04-16 08:14:56 51°14.492 2°50.32 236.4 3.2 238 13
2008-04-16 08:15:01 51°14.49 2°50.314 238 3.3 245 12.9
2008-04-16 08:15:07 51°14.488 2°50.306 239.4 3.3 244 13
2008-04-16 08:15:12 51°14.486 2°50.299 241 3.3 246 13
2008-04-16 08:15:16 51°14.484 2°50.294 242.4 3.3 247 13
2008-04-16 08:15:21 51°14.483 2°50.287 243.1 3.3 249 13
2008-04-16 08:15:27 51°14.481 2°50.279 243.8 3.3 246 13
2008-04-16 08:15:32 51°14.479 2°50.272 244.4 3.3 250 13.1
2008-04-16 08:15:36 51°14.478 2°50.266 244.4 3.4 249 13
2008-04-16 08:15:41 51°14.476 2°50.259 244.6 3.4 249 13
2008-04-16 08:15:47 51°14.474 2°50.251 244.5 3.4 248 13
2008-04-16 08:15:52 51°14.472 2°50.244 244.3 3.4 249 13
2008-04-16 08:15:56 51°14.471 2°50.238 243.9 3.4 249 13.1
2008-04-16 08:16:01 51°14.469 2°50.231 243.9 3.4 248 13.1
2008-04-16 08:16:06 51°14.467 2°50.225 243.7 3.3 249 13
2008-04-16 08:16:11 51°14.466 2°50.218 243.8 3.3 247 13
2008-04-16 08:16:16 51°14.464 2°50.211 243.8 3.3 249 13
2008-04-16 08:16:21 51°14.462 2°50.204 243.8 3.3 248 13
2008-04-16 08:16:26 51°14.461 2°50.198 243.8 3.2 248 13
2008-04-16 08:16:31 51°14.459 2°50.191 243.6 3.2 249 13.1
2008-04-16 08:16:37 51°14.457 2°50.183 243.7 3.2 247 13.1
2008-04-16 08:16:41 51°14.456 2°50.178 243.7 3.2 249 13.1
2008-04-16 08:16:47 51°14.454 2°50.17 243.6 3.2 246 13.1
2008-04-16 08:16:52 51°14.452 2°50.163 243.4 3.2 250 13
2008-04-16 08:16:56 51°14.451 2°50.158 243.4 3.2 247 13
2008-04-16 08:17:01 51°14.449 2°50.152 243.1 3.2 248 13
2008-04-16 08:17:07 51°14.447 2°50.144 243.1 3.1 246 13.1
2008-04-16 08:17:12 51°14.446 2°50.138 243 3.1 249 13.1
2008-04-16 08:17:17 51°14.444 2°50.132 243 3.1 247 13.1
2008-04-16 08:17:21 51°14.443 2°50.127 242.8 3.1 251 13.1
2008-04-16 08:17:27 51°14.44 2°50.119 243 3 241 13.2
2008-04-16 08:17:32 51°14.439 2°50.112 243.2 3.1 253 13
2008-04-16 08:17:36 51°14.438 2°50.108 242.7 3.1 246 12.9
2008-04-16 08:17:41 51°14.436 2°50.101 242.8 3.1 249 13.1
2008-04-16 08:17:46 51°14.434 2°50.095 243 3.1 243 13.2
2008-04-16 08:17:52 51°14.432 2°50.088 243.1 3.1 248 13.1
2008-04-16 08:17:57 51°14.431 2°50.081 242.6 3.1 247 13.1
2008-04-16 08:18:01 51°14.429 2°50.076 242.6 3.1 247 13.1
2008-04-16 08:18:06 51°14.428 2°50.07 242.9 3.1 248 13.2
2008-04-16 08:18:11 51°14.426 2°50.064 243 3 242 13.2
2008-04-16 08:18:17 51°14.424 2°50.056 243.2 3.1 251 13.1
2008-04-16 08:18:21 51°14.423 2°50.052 242.8 3 245 13.2
2008-04-16 08:18:26 51°14.421 2°50.045 243.3 3 250 13.2
2008-04-16 08:18:32 51°14.419 2°50.038 243.3 3 247 13.2
2008-04-16 08:18:37 51°14.418 2°50.031 243.2 3.1 248 13.2
2008-04-16 08:18:41 51°14.416 2°50.026 243.2 3 245 13.2
2008-04-16 08:18:46 51°14.415 2°50.02 243.3 3.1 250 13.1
2008-04-16 08:18:51 51°14.413 2°50.014 243.1 3 246 13.2
2008-04-16 08:18:56 51°14.412 2°50.007 243.3 3 248 13.1
2008-04-16 08:19:01 51°14.41 2°50.001 243.5 3.1 250 13.2
2008-04-16 08:19:07 51°14.408 2°49.994 243.4 3.1 248 13.3
2008-04-16 08:19:12 51°14.407 2°49.987 243.7 3.1 252 13.2
2008-04-16 08:19:16 51°14.405 2°49.983 243.6 3 246 13.2
2008-04-16 08:19:21 51°14.404 2°49.976 243.7 3 249 13.2
2008-04-16 08:19:27 51°14.402 2°49.969 243.9 3 246 13.3
2008-04-16 08:19:32 51°14.4 2°49.963 243.8 3.1 249 13.3
2008-04-16 08:19:36 51°14.399 2°49.958 243.9 3 248 13.2
2008-04-16 08:19:41 51°14.397 2°49.951 244.2 3 249 13.3
2008-04-16 08:19:47 51°14.396 2°49.944 244.5 3 246 13.3
2008-04-16 08:19:52 51°14.394 2°49.937 244.3 3 249 13.2
2008-04-16 08:19:56 51°14.393 2°49.932 244.5 3 250 13.2
2008-04-16 08:20:01 51°14.391 2°49.926 244.5 3 246 13.3
2008-04-16 08:20:06 51°14.39 2°49.92 244.7 3 249 13.2
2008-04-16 08:20:12 51°14.388 2°49.913 244.5 3 247 13.2
2008-04-16 08:20:16 51°14.387 2°49.908 244.8 3 252 13.2
2008-04-16 08:20:21 51°14.385 2°49.902 244.4 3 249 13.2
2008-04-16 08:20:26 51°14.384 2°49.895 244.5 3 246 13.3
2008-04-16 08:20:32 51°14.382 2°49.888 244.7 3 248 13.3
2008-04-16 08:20:36 51°14.381 2°49.883 244.5 3 252 13.2
2008-04-16 08:20:41 51°14.379 2°49.877 244.5 2.9 246 13.3
2008-04-16 08:20:46 51°14.378 2°49.871 244.6 3 250 13.3
2008-04-16 08:20:51 51°14.376 2°49.865 244.5 3 250 13.3
2008-04-16 08:20:57 51°14.375 2°49.857 244.4 2.9 248 13.4
2008-04-16 08:21:01 51°14.373 2°49.853 244.7 2.9 245 13.4
2008-04-16 08:21:07 51°14.372 2°49.845 244.6 3 251 13.4
2008-04-16 08:21:12 51°14.37 2°49.839 244.2 3 250 13.4
2008-04-16 08:21:16 51°14.369 2°49.834 244.4 2.9 245 13.4
2008-04-16 08:21:21 51°14.367 2°49.828 244.5 3 255 13.3
2008-04-16 08:21:26 51°14.366 2°49.822 244.4 2.9 244 13.4
2008-04-16 08:21:31 51°14.364 2°49.816 244.5 2.9 252 13.4
2008-04-16 08:21:37 51°14.362 2°49.809 244.5 2.9 246 13.4
2008-04-16 08:21:42 51°14.361 2°49.803 244.4 3 254 13.4
2008-04-16 08:21:47 51°14.36 2°49.797 244.3 2.9 245 13.5
2008-04-16 08:21:52 51°14.358 2°49.791 244.6 2.9 250 13.5
2008-04-16 08:21:56 51°14.357 2°49.786 244.4 2.9 248 13.5
2008-04-16 08:22:01 51°14.356 2°49.779 244.5 2.9 252 13.5
2008-04-16 08:22:07 51°14.354 2°49.773 244.5 2.9 246 13.5
2008-04-16 08:22:12 51°14.353 2°49.766 244.8 2.9 253 13.4
2008-04-16 08:22:17 51°14.351 2°49.76 244.6 2.9 247 13.4
2008-04-16 08:22:21 51°14.35 2°49.755 244.7 3 252 13.5
2008-04-16 08:22:26 51°14.348 2°49.749 244.8 2.9 247 13.4
2008-04-16 08:22:32 51°14.347 2°49.742 244.8 3 252 13.5
2008-04-16 08:22:36 51°14.346 2°49.737 244.6 3 247 13.5
2008-04-16 08:22:41 51°14.345 2°49.731 244.5 3 252 13.4
2008-04-16 08:22:47 51°14.343 2°49.724 244.7 2.9 248 13.4
2008-04-16 08:22:52 51°14.341 2°49.718 244.3 2.9 252 13.5
2008-04-16 08:22:56 51°14.34 2°49.713 244.5 2.9 245 13.5
2008-04-16 08:23:01 51°14.339 2°49.707 244.4 2.9 250 13.5
2008-04-16 08:23:07 51°14.337 2°49.7 244.2 2.9 249 13.5
2008-04-16 08:23:12 51°14.335 2°49.694 244.2 2.9 250 13.5
2008-04-16 08:23:17 51°14.334 2°49.688 244.5 2.9 246 13.5
2008-04-16 08:23:21 51°14.333 2°49.683 244.3 2.9 253 13.6
2008-04-16 08:23:27 51°14.331 2°49.676 244.1 2.9 244 13.6
2008-04-16 08:23:32 51°14.329 2°49.67 244.5 2.9 252 13.5
2008-04-16 08:23:36 51°14.328 2°49.666 244 2.9 247 13.5
2008-04-16 08:23:41 51°14.327 2°49.66 244 2.9 252 13.6
2008-04-16 08:23:47 51°14.325 2°49.653 244.3 2.8 246 13.6
2008-04-16 08:23:52 51°14.323 2°49.647 244.2 2.9 248 13.5
2008-04-16 08:23:56 51°14.322 2°49.642 244.1 2.9 250 13.5
2008-04-16 08:24:01 51°14.321 2°49.636 244 2.9 248 13.5
2008-04-16 08:24:07 51°14.319 2°49.629 244.1 2.9 249 13.5
2008-04-16 08:24:12 51°14.318 2°49.623 243.8 2.9 248 13.6
2008-04-16 08:24:16 51°14.316 2°49.618 244 2.9 249 13.6
2008-04-16 08:24:21 51°14.315 2°49.612 244 2.9 249 13.6
2008-04-16 08:24:27 51°14.313 2°49.605 244.1 2.9 249 13.6
2008-04-16 08:24:32 51°14.312 2°49.599 244.2 2.9 253 13.6
2008-04-16 08:24:37 51°14.31 2°49.594 244.2 2.8 244 13.7
2008-04-16 08:24:41 51°14.309 2°49.589 244.4 2.9 252 13.5
2008-04-16 08:24:46 51°14.308 2°49.583 243.9 2.9 248 13.6
2008-04-16 08:24:52 51°14.306 2°49.576 243.8 2.9 250 13.6
2008-04-16 08:24:57 51°14.304 2°49.57 244.2 2.9 245 13.5
2008-04-16 08:25:01 51°14.304 2°49.565 244 2.9 255 13.4
2008-04-16 08:25:06 51°14.302 2°49.56 243.5 2.8 245 13.6
2008-04-16 08:25:12 51°14.3 2°49.553 244.2 2.8 247 13.5
2008-04-16 08:25:17 51°14.299 2°49.546 243.8 2.9 253 13.4
2008-04-16 08:25:21 51°14.297 2°49.542 243.7 2.8 246 13.5
2008-04-16 08:25:26 51°14.296 2°49.536 243.7 2.9 252 13.6
2008-04-16 08:25:31 51°14.294 2°49.53 243.8 2.8 244 13.7
2008-04-16 08:25:37 51°14.293 2°49.523 243.8 2.8 251 13.5
2008-04-16 08:25:41 51°14.292 2°49.518 243.6 2.8 250 13.6
2008-04-16 08:25:46 51°14.29 2°49.512 243.6 2.9 248 13.5
2008-04-16 08:25:52 51°14.289 2°49.506 243.7 2.8 250 13.6
2008-04-16 08:25:56 51°14.287 2°49.501 243.7 2.8 248 13.6
2008-04-16 08:26:01 51°14.286 2°49.496 243.8 2.8 250 13.5
2008-04-16 08:26:07 51°14.284 2°49.489 243.8 2.8 245 13.6
2008-04-16 08:26:12 51°14.283 2°49.483 243.8 2.8 251 13.5
2008-04-16 08:26:16 51°14.282 2°49.478 243.8 2.8 248 13.5
2008-04-16 08:26:21 51°14.28 2°49.472 244.1 2.8 248 13.6
2008-04-16 08:26:27 51°14.279 2°49.465 244.1 2.9 250 13.4
2008-04-16 08:26:32 51°14.277 2°49.459 243.9 2.8 250 13.5
2008-04-16 08:26:36 51°14.276 2°49.455 244 2.8 248 13.6
2008-04-16 08:26:41 51°14.275 2°49.449 244.5 2.8 252 13.6
2008-04-16 08:26:47 51°14.273 2°49.442 244.1 2.8 250 13.6
2008-04-16 08:26:52 51°14.272 2°49.436 244.5 2.8 249 13.6
2008-04-16 08:26:56 51°14.271 2°49.431 244.1 2.9 251 13.5
2008-04-16 08:27:01 51°14.269 2°49.426 244 2.9 251 13.6
2008-04-16 08:27:06 51°14.268 2°49.42 244.2 2.8 245 13.6
2008-04-16 08:27:12 51°14.266 2°49.413 244.3 2.9 253 13.6
2008-04-16 08:27:16 51°14.265 2°49.408 244.4 2.8 245 13.6
2008-04-16 08:27:21 51°14.264 2°49.402 244.2 2.9 254 13.6
2008-04-16 08:27:27 51°14.262 2°49.395 244.5 2.8 246 13.7
2008-04-16 08:27:32 51°14.261 2°49.389 244.5 2.9 253 13.7
2008-04-16 08:27:36 51°14.26 2°49.384 245 2.9 250 13.6
2008-04-16 08:27:41 51°14.258 2°49.378 244.6 2.9 253 13.6
2008-04-16 08:27:47 51°14.257 2°49.371 244.9 2.9 247 13.6
2008-04-16 08:27:52 51°14.256 2°49.365 244.7 2.9 254 13.6
2008-04-16 08:27:56 51°14.255 2°49.36 245 2.9 250 13.5
2008-04-16 08:28:01 51°14.253 2°49.354 244.6 2.9 253 13.6
2008-04-16 08:28:06 51°14.252 2°49.348 244.6 2.9 250 13.7
2008-04-16 08:28:11 51°14.25 2°49.342 244.4 2.9 250 13.7
2008-04-16 08:28:16 51°14.249 2°49.336 244.4 2.9 252 13.6
2008-04-16 08:28:22 51°14.248 2°49.329 244.2 2.9 250 13.6
2008-04-16 08:28:27 51°14.246 2°49.323 244.3 2.9 251 13.6
2008-04-16 08:28:32 51°14.245 2°49.317 244.1 2.9 251 13.6
2008-04-16 08:28:36 51°14.244 2°49.312 244.2 2.9 248 13.7
2008-04-16 08:28:41 51°14.242 2°49.306 244 2.9 251 13.6
2008-04-16 08:28:47 51°14.241 2°49.299 244 2.9 250 13.7
2008-04-16 08:28:52 51°14.239 2°49.293 244 2.9 250 13.6
2008-04-16 08:28:57 51°14.238 2°49.287 243.9 2.9 249 13.7
2008-04-16 08:29:01 51°14.237 2°49.282 244 2.9 249 13.7
2008-04-16 08:29:06 51°14.235 2°49.276 243.9 2.9 250 13.7
2008-04-16 08:29:12 51°14.233 2°49.269 243.9 2.9 249 13.7
2008-04-16 08:29:16 51°14.232 2°49.264 244 2.9 249 13.7
2008-04-16 08:29:21 51°14.231 2°49.258 244 2.9 251 13.8
2008-04-16 08:29:26 51°14.229 2°49.253 244.2 2.9 245 13.7
2008-04-16 08:29:32 51°14.228 2°49.245 244.3 2.9 255 13.6
2008-04-16 08:29:37 51°14.226 2°49.239 243.8 2.9 246 13.7
2008-04-16 08:29:41 51°14.225 2°49.235 243.9 2.9 252 13.7
2008-04-16 08:29:46 51°14.224 2°49.229 243.9 2.8 244 13.7
2008-04-16 08:29:51 51°14.223 2°49.223 243.8 2.9 253 13.7
2008-04-16 08:29:57 51°14.221 2°49.216 243.8 2.9 245 13.8
2008-04-16 08:30:01 51°14.22 2°49.211 244.1 2.9 252 13.7
2008-04-16 08:30:07 51°14.218 2°49.204 244.1 2.9 246 13.7
2008-04-16 08:30:12 51°14.217 2°49.198 244.2 2.9 254 13.7
2008-04-16 08:30:16 51°14.215 2°49.193 244.4 2.8 245 13.7
2008-04-16 08:30:21 51°14.214 2°49.187 244.5 2.9 253 13.6
2008-04-16 08:30:27 51°14.213 2°49.18 244.3 2.9 250 13.6
2008-04-16 08:30:32 51°14.211 2°49.174 244.5 2.9 248 13.7
2008-04-16 08:30:36 51°14.21 2°49.169 244.6 2.9 250 13.7
2008-04-16 08:30:41 51°14.208 2°49.163 244.5 2.9 250 13.7
2008-04-16 08:30:47 51°14.207 2°49.156 244.2 2.9 251 13.6
2008-04-16 08:30:52 51°14.205 2°49.15 244.3 2.9 249 13.6
2008-04-16 08:30:56 51°14.204 2°49.146 244.5 2.8 248 13.7
2008-04-16 08:31:01 51°14.203 2°49.14 244.1 2.9 250 13.7
2008-04-16 08:31:07 51°14.201 2°49.133 244.2 2.8 251 13.7
2008-04-16 08:31:12 51°14.2 2°49.127 244.3 2.8 250 13.7
2008-04-16 08:31:16 51°14.199 2°49.122 244.6 2.8 248 13.6
2008-04-16 08:31:21 51°14.198 2°49.116 244.5 2.9 255 13.7
2008-04-16 08:31:27 51°14.196 2°49.109 244 2.8 245 13.7
2008-04-16 08:31:32 51°14.194 2°49.103 244.5 2.8 252 13.7
2008-04-16 08:31:36 51°14.193 2°49.098 244.1 2.8 245 13.9
2008-04-16 08:31:41 51°14.192 2°49.092 244.1 2.8 250 13.6
2008-04-16 08:31:46 51°14.19 2°49.087 243.8 2.9 251 13.7
2008-04-16 08:31:52 51°14.189 2°49.08 243.8 2.8 248 13.7
2008-04-16 08:31:56 51°14.188 2°49.075 243.9 2.8 250 13.8
2008-04-16 08:32:01 51°14.186 2°49.069 244 2.8 248 13.7
2008-04-16 08:32:07 51°14.184 2°49.062 244 2.8 251 13.8
2008-04-16 08:32:11 51°14.183 2°49.058 244.1 2.8 250 13.7
2008-04-16 08:32:17 51°14.182 2°49.051 244.1 2.8 247 13.8
2008-04-16 08:32:21 51°14.181 2°49.046 244.5 2.8 251 13.7
2008-04-16 08:32:26 51°14.179 2°49.04 243.8 2.8 250 13.8
2008-04-16 08:32:31 51°14.178 2°49.034 244.6 2.8 247 13.7
2008-04-16 08:32:36 51°14.177 2°49.028 244.2 2.9 254 13.8
2008-04-16 08:32:42 51°14.175 2°49.021 244.3 2.8 246 13.8
2008-04-16 08:32:47 51°14.174 2°49.015 244.4 2.8 253 13.8
2008-04-16 08:32:52 51°14.172 2°49.009 244.2 2.9 252 13.8
2008-04-16 08:32:56 51°14.171 2°49.005 244.5 2.9 250 13.8
2008-04-16 08:33:01 51°14.17 2°48.999 245.2 2.8 253 13.8
2008-04-16 08:33:07 51°14.169 2°48.991 246.1 2.8 253 13.8
2008-04-16 08:33:11 51°14.168 2°48.986 247.6 2.9 262 13.8
2008-04-16 08:33:17 51°14.167 2°48.979 249.7 2.8 255 13.8
2008-04-16 08:33:21 51°14.167 2°48.974 251.9 2.8 264 13.8
2008-04-16 08:33:27 51°14.167 2°48.966 254.1 2.8 263 13.9
2008-04-16 08:33:32 51°14.166 2°48.96 256.4 2.9 269 13.8
2008-04-16 08:33:36 51°14.167 2°48.955 258.3 2.9 272 13.8
2008-04-16 08:33:41 51°14.167 2°48.949 260.8 2.9 273 13.8
2008-04-16 08:33:47 51°14.167 2°48.941 263 2.9 275 13.8
2008-04-16 08:33:52 51°14.168 2°48.935 265.3 2.9 279 13.8
2008-04-16 08:33:57 51°14.169 2°48.929 267.7 3 285 13.8
2008-04-16 08:34:01 51°14.17 2°48.924 270.1 3 285 13.8
2008-04-16 08:34:06 51°14.171 2°48.917 272.3 3 289 13.9
2008-04-16 08:34:12 51°14.173 2°48.91 274.9 3 292 13.9
2008-04-16 08:34:17 51°14.175 2°48.904 277.2 3 294 13.9
2008-04-16 08:34:21 51°14.176 2°48.899 279.2 3.1 298 13.8
2008-04-16 08:34:26 51°14.178 2°48.893 281.5 3.1 300 13.8
2008-04-16 08:34:31 51°14.18 2°48.887 283.6 3.1 300 13.9
2008-04-16 08:34:37 51°14.184 2°48.88 286.4 3.2 304 13.9
2008-04-16 08:34:41 51°14.186 2°48.876 288.3 3.2 306 13.8
2008-04-16 08:34:47 51°14.189 2°48.869 290.5 3.2 308 13.8
2008-04-16 08:34:51 51°14.192 2°48.865 292.9 3.3 313 13.8
2008-04-16 08:34:57 51°14.195 2°48.858 295.1 3.3 313 13.9
2008-04-16 08:35:01 51°14.198 2°48.854 298.2 3.4 317 13.9
2008-04-16 08:35:06 51°14.202 2°48.849 299.7 3.4 318 13.9
2008-04-16 08:35:12 51°14.206 2°48.844 301.9 3.4 321 13.9
2008-04-16 08:35:16 51°14.209 2°48.84 304.4 3.5 326 13.8
2008-04-16 08:35:22 51°14.214 2°48.836 306.9 3.4 327 13.9
2008-04-16 08:35:27 51°14.219 2°48.832 310.3 3.5 332 13.9
2008-04-16 08:35:32 51°14.223 2°48.829 314.9 3.5 337 13.9
2008-04-16 08:35:36 51°14.227 2°48.827 320 3.5 343 13.9
2008-04-16 08:35:41 51°14.232 2°48.825 325.4 3.5 347 13.9
2008-04-16 08:35:47 51°14.237 2°48.824 330.9 3.6 352 14
2008-04-16 08:35:52 51°14.242 2°48.824 336.4 3.6 357 13.9
2008-04-16 08:35:57 51°14.248 2°48.824 341.9 3.7 1 13.9
2008-04-16 08:36:01 51°14.252 2°48.825 347.2 3.7 6 13.9
2008-04-16 08:36:06 51°14.257 2°48.827 352.6 3.7 9 13.9
2008-04-16 08:36:12 51°14.263 2°48.829 357.8 3.7 13 13.9
2008-04-16 08:36:16 51°14.267 2°48.831 2.8 3.8 16 14
2008-04-16 08:36:21 51°14.272 2°48.834 7.9 3.8 20 14
2008-04-16 08:36:27 51°14.278 2°48.838 12.9 3.9 23 14
2008-04-16 08:36:32 51°14.282 2°48.842 17.9 3.8 27 14
2008-04-16 08:36:36 51°14.286 2°48.845 22.2 3.6 30 13.9
2008-04-16 08:36:41 51°14.29 2°48.849 25.3 3.5 33 14.1
2008-04-16 08:36:47 51°14.294 2°48.854 27.4 3.4 33 14.1
2008-04-16 08:36:52 51°14.298 2°48.858 28.9 3.3 36 14.1
2008-04-16 08:36:57 51°14.301 2°48.862 30.4 3.1 35 14
2008-04-16 08:37:01 51°14.304 2°48.865 31.3 3 34 14.1
2008-04-16 08:37:07 51°14.308 2°48.87 32.1 3 38 14.2
2008-04-16 08:37:12 51°14.311 2°48.874 32.8 2.9 37 14.1
2008-04-16 08:37:16 51°14.314 2°48.876 33.1 2.8 36 14.1
2008-04-16 08:37:21 51°14.317 2°48.881 33.4 2.9 39 14.1
2008-04-16 08:37:27 51°14.321 2°48.885 33.7 2.8 39 14.2
2008-04-16 08:37:32 51°14.323 2°48.889 34 2.7 41 14.2
2008-04-16 08:37:36 51°14.326 2°48.891 34 2.6 37 14.1
2008-04-16 08:37:41 51°14.328 2°48.895 34.2 2.6 41 14.1
2008-04-16 08:37:47 51°14.332 2°48.9 34.6 2.6 38 14.1
2008-04-16 08:37:52 51°14.335 2°48.903 34.6 2.6 40 14.1
2008-04-16 08:37:56 51°14.337 2°48.906 34.8 2.6 42 14.2
2008-04-16 08:38:01 51°14.339 2°48.909 34.8 2.4 35 14.2
2008-04-16 08:38:07 51°14.342 2°48.913 34.7 2.4 41 14.2
2008-04-16 08:38:12 51°14.345 2°48.917 34.9 2.3 38 14.2
2008-04-16 08:38:16 51°14.347 2°48.919 34.7 2.3 38 14.1
2008-04-16 08:38:21 51°14.35 2°48.923 34.7 2.3 38 14.1
2008-04-16 08:38:26 51°14.352 2°48.926 34.9 2.3 42 14.2
2008-04-16 08:38:32 51°14.355 2°48.93 34.8 2.3 38 14.2
2008-04-16 08:38:37 51°14.357 2°48.933 34.7 2.2 42 14.3
2008-04-16 08:38:41 51°14.359 2°48.935 34.8 2.2 40 14.2
2008-04-16 08:38:46 51°14.361 2°48.938 34.8 2.2 39 14.1
2008-04-16 08:38:52 51°14.364 2°48.942 35.1 2.2 42 14.1
2008-04-16 08:38:57 51°14.367 2°48.946 35.5 2.3 42 14.2
2008-04-16 08:39:01 51°14.369 2°48.948 36.2 2.5 42 14.2
2008-04-16 08:39:07 51°14.372 2°48.954 37.6 2.8 43 14.2
2008-04-16 08:39:12 51°14.375 2°48.958 39.5 3.1 42 14.2
2008-04-16 08:39:17 51°14.379 2°48.964 41.6 3.6 43 14.2
2008-04-16 08:39:21 51°14.382 2°48.97 44.2 4.2 45 14.2
2008-04-16 08:39:26 51°14.386 2°48.977 47.5 4.4 49 14.2
2008-04-16 08:39:32 51°14.391 2°48.986 49.8 4.5 48 14.2
2008-04-16 08:39:36 51°14.394 2°48.992 51.6 4.7 51 14.2
2008-04-16 08:39:42 51°14.399 2°49.002 53.5 4.8 52 14.2
2008-04-16 08:39:47 51°14.403 2°49.011 55.1 4.9 53 14.2
2008-04-16 08:39:52 51°14.407 2°49.02 56.6 5.1 55 14.2
2008-04-16 08:39:56 51°14.411 2°49.028 58 5.6 55 14.1
2008-04-16 08:40:01 51°14.415 2°49.039 60 5.9 57 14.1
2008-04-16 08:40:07 51°14.421 2°49.053 62 5.9 58 14.1
2008-04-16 08:40:12 51°14.424 2°49.064 64 5.8 59 14.2
2008-04-16 08:40:16 51°14.427 2°49.073 65.7 5.7 63 14.2
2008-04-16 08:40:21 51°14.431 2°49.083 67.4 5.5 62 14.2
2008-04-16 08:40:27 51°14.435 2°49.096 69.3 5.2 64 14.2
2008-04-16 08:40:32 51°14.438 2°49.106 70.6 5 65 14.4
2008-04-16 08:40:36 51°14.44 2°49.114 72.2 4.9 68 14.3
2008-04-16 08:40:41 51°14.442 2°49.124 73.8 4.7 66 14.3
2008-04-16 08:40:46 51°14.445 2°49.133 74.8 4.5 67 14.3
2008-04-16 08:40:52 51°14.447 2°49.143 76.1 4.3 67 14.2
2008-04-16 08:40:56 51°14.449 2°49.15 77 4.2 68 14.3
2008-04-16 08:41:01 51°14.451 2°49.159 77.6 4.1 68 14.3
2008-04-16 08:41:07 51°14.454 2°49.168 78.1 4.1 66 14.3
2008-04-16 08:41:12 51°14.456 2°49.176 78.5 3.9 70 14.3
2008-04-16 08:41:16 51°14.458 2°49.183 79 3.8 68 14.3
2008-04-16 08:41:21 51°14.459 2°49.19 79.4 3.7 68 14.3
2008-04-16 08:41:27 51°14.462 2°49.199 79.4 3.7 67 14.3
2008-04-16 08:41:32 51°14.463 2°49.207 79.8 3.6 68 14.3
2008-04-16 08:41:36 51°14.465 2°49.212 79.8 3.5 64 14.2
2008-04-16 08:41:41 51°14.467 2°49.219 79.9 3.4 68 14.3
2008-04-16 08:41:46 51°14.469 2°49.226 80 3.3 64 14.2
2008-04-16 08:41:51 51°14.47 2°49.232 80.3 3.2 68 14.3
2008-04-16 08:41:56 51°14.472 2°49.239 80.1 3.2 66 14.3
2008-04-16 08:42:02 51°14.474 2°49.246 80 3.1 65 14.3
2008-04-16 08:42:07 51°14.476 2°49.253 79.7 3 66 14.3
2008-04-16 08:42:12 51°14.478 2°49.259 79.5 3.1 63 14.3
2008-04-16 08:42:16 51°14.479 2°49.263 79.1 3 68 14.4
2008-04-16 08:42:22 51°14.481 2°49.27 78.9 2.9 63 14.3
2008-04-16 08:42:27 51°14.483 2°49.276 78.6 2.9 63 14.2
2008-04-16 08:42:32 51°14.485 2°49.282 78.3 2.8 63 14.3
2008-04-16 08:42:37 51°14.487 2°49.287 78.2 2.7 66 14.3
2008-04-16 08:42:41 51°14.488 2°49.291 77.6 2.7 60 14.3
2008-04-16 08:42:47 51°14.49 2°49.298 76.9 2.7 62 14.3
2008-04-16 08:42:52 51°14.492 2°49.303 76.1 2.7 60 14.3
2008-04-16 08:42:56 51°14.494 2°49.307 75.8 2.7 57 14.2
2008-04-16 08:43:01 51°14.496 2°49.312 74.9 2.6 59 14.3
2008-04-16 08:43:06 51°14.497 2°49.316 74.4 2.6 59 14.3
2008-04-16 08:43:12 51°14.5 2°49.322 73.9 2.6 58 14.3
2008-04-16 08:43:17 51°14.502 2°49.327 72.9 2.6 57 14.3
2008-04-16 08:43:21 51°14.504 2°49.331 72 2.6 56 14.3
2008-04-16 08:43:26 51°14.505 2°49.336 70.8 2.6 56 14.3
2008-04-16 08:43:31 51°14.507 2°49.341 69.9 2.6 55 14.3
2008-04-16 08:43:37 51°14.51 2°49.346 68.6 2.6 57 14.4
2008-04-16 08:43:41 51°14.512 2°49.35 67 2.6 52 14.3
2008-04-16 08:43:47 51°14.514 2°49.355 65.4 2.6 54 14.3
2008-04-16 08:43:52 51°14.516 2°49.36 64.5 2.7 52 14.3
2008-04-16 08:43:57 51°14.519 2°49.365 62.7 2.7 54 14.4
2008-04-16 08:44:01 51°14.521 2°49.368 61.7 2.7 52 14.4
2008-04-16 08:44:07 51°14.524 2°49.374 61.1 2.8 49 14.4
2008-04-16 08:44:12 51°14.526 2°49.379 60.5 2.8 55 14.4
2008-04-16 08:44:16 51°14.528 2°49.383 60.8 2.9 50 14.4
2008-04-16 08:44:21 51°14.53 2°49.388 60.9 2.9 51 14.3
2008-04-16 08:44:27 51°14.533 2°49.394 61.3 2.9 53 14.4
2008-04-16 08:44:32 51°14.536 2°49.4 62.2 3 55 14.5
2008-04-16 08:44:36 51°14.538 2°49.404 63 3 53 14.4
2008-04-16 08:44:41 51°14.54 2°49.409 63.8 3 55 14.4
2008-04-16 08:44:47 51°14.543 2°49.415 64.5 3 53 14.4
2008-04-16 08:44:52 51°14.545 2°49.421 64.9 3 56 14.5
2008-04-16 08:44:56 51°14.547 2°49.425 65.7 3 55 14.5
2008-04-16 08:45:01 51°14.549 2°49.431 66.2 3 55 14.5
2008-04-16 08:45:06 51°14.552 2°49.436 66.7 3 55 14.4
2008-04-16 08:45:12 51°14.555 2°49.443 67.3 3 56 14.3
2008-04-16 08:45:16 51°14.556 2°49.448 68.1 3 59 14.4
2008-04-16 08:45:21 51°14.559 2°49.453 69 3 57 14.3
2008-04-16 08:45:26 51°14.561 2°49.459 69.6 3 57 14.3
2008-04-16 08:45:31 51°14.563 2°49.465 70.6 3 61 14.4
2008-04-16 08:45:37 51°14.565 2°49.472 71.3 3.1 58 14.3
2008-04-16 08:45:41 51°14.567 2°49.477 72.2 3.1 61 14.3
2008-04-16 08:45:47 51°14.57 2°49.484 72.9 3 61 14.4
2008-04-16 08:45:52 51°14.572 2°49.49 73.8 3.1 60 14.4
2008-04-16 08:45:56 51°14.573 2°49.495 74.9 3.1 66 14.5
2008-04-16 08:46:01 51°14.575 2°49.5 75.7 3.2 58 14.4
2008-04-16 08:46:07 51°14.577 2°49.508 76.5 3 66 14.4
2008-04-16 08:46:12 51°14.579 2°49.514 77 3.1 64 14.5
2008-04-16 08:46:16 51°14.581 2°49.519 77.7 3.1 62 14.5
2008-04-16 08:46:21 51°14.583 2°49.525 78.2 3.1 67 14.5
2008-04-16 08:46:27 51°14.585 2°49.533 78.7 3.1 62 14.5
2008-04-16 08:46:32 51°14.587 2°49.539 79.1 3.1 65 14.5
2008-04-16 08:46:36 51°14.588 2°49.544 79.8 3.1 64 14.5
2008-04-16 08:46:41 51°14.59 2°49.55 80.3 3.1 65 14.5
2008-04-16 08:46:47 51°14.593 2°49.557 80.5 3.1 65 14.5
2008-04-16 08:46:52 51°14.594 2°49.564 80.8 3.2 64 14.5
2008-04-16 08:46:56 51°14.596 2°49.569 81.1 3.2 66 14.5
2008-04-16 08:47:01 51°14.598 2°49.575 81.2 3.1 66 14.5
2008-04-16 08:47:07 51°14.6 2°49.582 81.2 3.1 66 14.6
2008-04-16 08:47:12 51°14.602 2°49.589 81.2 3.2 64 14.5
2008-04-16 08:47:16 51°14.603 2°49.594 81.4 3.1 65 14.5
2008-04-16 08:47:21 51°14.605 2°49.6 81.2 3.1 65 14.5
2008-04-16 08:47:26 51°14.607 2°49.606 81.5 3.1 65 14.5
2008-04-16 08:47:32 51°14.609 2°49.614 81.5 3.1 64 14.6
2008-04-16 08:47:36 51°14.611 2°49.619 81.6 3.1 65 14.6
2008-04-16 08:47:41 51°14.612 2°49.625 81.7 3.1 66 14.6
2008-04-16 08:47:47 51°14.615 2°49.633 81.7 3.1 63 14.4
2008-04-16 08:47:52 51°14.616 2°49.639 81.9 3.1 66 14.6
2008-04-16 08:47:56 51°14.618 2°49.644 81.9 3.1 67 14.5
2008-04-16 08:48:01 51°14.62 2°49.65 82.2 3.2 66 14.5
2008-04-16 08:48:07 51°14.622 2°49.658 82.5 3.1 68 14.6
2008-04-16 08:48:12 51°14.624 2°49.664 82.3 3.2 64 14.7
2008-04-16 08:48:17 51°14.625 2°49.671 82.6 3.1 71 14.6
2008-04-16 08:48:22 51°14.627 2°49.677 83.2 3.2 64 14.6
2008-04-16 08:48:27 51°14.628 2°49.684 82.9 3.1 69 14.5
2008-04-16 08:48:32 51°14.63 2°49.69 83.3 3.2 65 14.5
2008-04-16 08:48:36 51°14.631 2°49.695 83.3 3.1 67 14.5
2008-04-16 08:48:41 51°14.633 2°49.701 83.1 3.1 66 14.6
2008-04-16 08:48:47 51°14.635 2°49.709 83.1 3.1 67 14.6
2008-04-16 08:48:51 51°14.637 2°49.714 82.8 3.1 66 14.6
2008-04-16 08:48:57 51°14.639 2°49.722 82.6 3.1 68 14.6
2008-04-16 08:49:02 51°14.641 2°49.728 82.3 3.2 64 14.5
2008-04-16 08:49:07 51°14.642 2°49.735 82.4 3.2 68 14.5
2008-04-16 08:49:12 51°14.644 2°49.742 82.3 3.2 66 14.6
2008-04-16 08:49:16 51°14.645 2°49.747 82.1 3.1 68 14.6
2008-04-16 08:49:21 51°14.647 2°49.753 82.1 3.3 63 14.5
2008-04-16 08:49:27 51°14.649 2°49.761 81.9 3.1 68 14.6
2008-04-16 08:49:32 51°14.651 2°49.767 81.9 3.2 63 14.5
2008-04-16 08:49:37 51°14.653 2°49.774 81.9 3.2 68 14.6
2008-04-16 08:49:41 51°14.654 2°49.779 81.9 3.1 69 14.6
2008-04-16 08:49:46 51°14.656 2°49.786 82.2 3.2 65 14.5
2008-04-16 08:49:52 51°14.658 2°49.794 82.1 3.2 68 14.6
2008-04-16 08:49:57 51°14.66 2°49.8 82.3 3.2 66 14.5
2008-04-16 08:50:01 51°14.661 2°49.805 82.4 3.2 70 14.6
2008-04-16 08:50:07 51°14.663 2°49.813 82.4 3.3 65 14.5
2008-04-16 08:50:12 51°14.665 2°49.82 82.5 3.2 67 14.6
2008-04-16 08:50:16 51°14.666 2°49.825 82.4 3.2 68 14.6
2008-04-16 08:50:21 51°14.668 2°49.832 82.6 3.2 69 14.6
2008-04-16 08:50:27 51°14.67 2°49.84 82.3 3.3 65 14.5
2008-04-16 08:50:32 51°14.672 2°49.846 82.3 3.2 69 14.6
2008-04-16 08:50:37 51°14.673 2°49.853 82.2 3.2 70 14.6
2008-04-16 08:50:41 51°14.675 2°49.858 82.1 3.3 64 14.5
2008-04-16 08:50:47 51°14.677 2°49.866 82 3.2 69 14.5
2008-04-16 08:50:52 51°14.679 2°49.873 82 3.3 65 14.5
2008-04-16 08:50:56 51°14.68 2°49.878 81.8 3.2 68 14.6
2008-04-16 08:51:01 51°14.682 2°49.884 81.4 3.2 68 14.6
2008-04-16 08:51:07 51°14.684 2°49.893 81.6 3.3 63 14.5
2008-04-16 08:51:12 51°14.686 2°49.899 81.5 3.3 65 14.5
2008-04-16 08:51:16 51°14.687 2°49.904 81.5 3.2 67 14.6
2008-04-16 08:51:21 51°14.689 2°49.911 81.2 3.2 66 14.5
2008-04-16 08:51:27 51°14.692 2°49.919 81.4 3.3 64 14.6
2008-04-16 08:51:32 51°14.693 2°49.926 81.4 3.2 68 14.5
2008-04-16 08:51:36 51°14.695 2°49.931 81.5 3.3 66 14.6
2008-04-16 08:51:41 51°14.697 2°49.938 81.3 3.2 68 14.5
2008-04-16 08:51:47 51°14.699 2°49.946 81.4 3.3 64 14.6
2008-04-16 08:51:52 51°14.7 2°49.952 81.2 3.2 70 14.6
2008-04-16 08:51:56 51°14.702 2°49.958 81.4 3.3 65 14.7
2008-04-16 08:52:01 51°14.704 2°49.964 81.2 3.2 69 14.6
2008-04-16 08:52:06 51°14.706 2°49.971 81.5 3.3 64 14.5
2008-04-16 08:52:12 51°14.708 2°49.979 81.3 3.2 68 14.5
2008-04-16 08:52:17 51°14.709 2°49.986 81.4 3.3 65 14.6
2008-04-16 08:52:21 51°14.711 2°49.991 81.2 3.2 68 14.6
2008-04-16 08:52:26 51°14.713 2°49.997 81.4 3.3 65 14.5
2008-04-16 08:52:31 51°14.715 2°50.004 81.3 3.2 68 14.5
2008-04-16 08:52:37 51°14.717 2°50.012 81.2 3.3 65 14.6
2008-04-16 08:52:42 51°14.718 2°50.019 81 3.2 68 14.6
2008-04-16 08:52:47 51°14.72 2°50.025 81 3.2 70 14.6
2008-04-16 08:52:52 51°14.722 2°50.032 80.7 3.3 66 14.6
2008-04-16 08:52:57 51°14.724 2°50.038 80.7 3.3 67 14.6
2008-04-16 08:53:01 51°14.725 2°50.043 80.5 3.2 66 14.6
2008-04-16 08:53:07 51°14.727 2°50.051 80.3 3.2 66 14.6
2008-04-16 08:53:12 51°14.729 2°50.058 80.5 3.3 66 14.6
2008-04-16 08:53:17 51°14.731 2°50.064 80.4 3.2 67 14.6
2008-04-16 08:53:22 51°14.733 2°50.071 80.2 3.2 68 14.7
2008-04-16 08:53:27 51°14.735 2°50.077 80.3 3.3 64 14.6
2008-04-16 08:53:32 51°14.737 2°50.084 80.1 3.2 68 14.6
2008-04-16 08:53:36 51°14.738 2°50.089 80.4 3.3 64 14.6
2008-04-16 08:53:41 51°14.74 2°50.096 80.4 3.3 68 14.6
2008-04-16 08:53:47 51°14.742 2°50.103 80.4 3.3 66 14.5
2008-04-16 08:53:52 51°14.744 2°50.11 80.5 3.3 68 14.6
2008-04-16 08:53:56 51°14.732 2°54.92 126.7 -999 -999 6.5
2008-04-16 08:53:56 51°14.745 2°50.115 80.5 3.3 66 14.6
2008-04-16 08:53:56 51°14.732 2°54.92 126.7 -999 -999 6.6
2008-04-16 08:53:56 51°14.732 2°54.92 127 -999 -999 -999
2008-04-16 08:53:56 51°14.732 2°54.92 126.6 -999 -999 -999
2008-04-16 08:53:56 51°14.732 2°54.92 126.8 -999 -999 6.6
2008-04-16 08:53:56 51°14.732 2°54.92 127 -999 -999 -999
2008-04-16 08:53:56 51°14.732 2°54.92 126.7 -999 -999 -999
2008-04-16 08:53:56 51°14.732 2°54.92 126.9 -999 -999 -999
2008-04-16 08:53:56 51°14.732 2°54.92 126.9 -999 -999 -999
2008-04-16 08:54:01 51°14.747 2°50.122 80.5 3.3 67 14.6
2008-04-16 08:54:07 51°14.75 2°50.13 80.5 3.3 65 14.6
2008-04-16 08:54:12 51°14.751 2°50.136 80.5 3.3 66 14.5
2008-04-16 08:54:17 51°14.753 2°50.143 80.5 3.3 68 14.6
2008-04-16 08:54:21 51°14.755 2°50.148 80.5 3.3 66 14.6
2008-04-16 08:54:27 51°14.757 2°50.156 80.3 3.3 68 14.5
2008-04-16 08:54:32 51°14.759 2°50.163 80.5 3.3 65 14.5
2008-04-16 08:54:36 51°14.76 2°50.168 80.5 3.3 68 14.6
2008-04-16 08:54:41 51°14.762 2°50.175 80.5 3.2 69 14.6
2008-04-16 08:54:47 51°14.764 2°50.183 80.7 3.3 68 14.6
2008-04-16 08:54:52 51°14.766 2°50.189 80.6 3.3 66 14.5
2008-04-16 08:54:57 51°14.768 2°50.196 80.8 3.2 70 14.6
2008-04-16 08:55:01 51°14.769 2°50.202 80.7 3.3 67 14.7
2008-04-16 08:55:07 51°14.771 2°50.21 80.5 3.3 70 14.7
2008-04-16 08:55:12 51°14.773 2°50.216 80.5 3.3 66 14.7
2008-04-16 08:55:16 51°14.774 2°50.222 80.5 3.3 68 14.6
2008-04-16 08:55:21 51°14.776 2°50.228 80.5 3.3 68 14.7
2008-04-16 08:55:27 51°14.778 2°50.236 80.4 3.3 66 14.6
2008-04-16 08:55:31 51°14.78 2°50.242 80.5 3.3 67 14.6
2008-04-16 08:55:36 51°14.782 2°50.248 80.3 3.3 67 14.6
2008-04-16 08:55:41 51°14.783 2°50.255 80.3 3.3 67 14.7
2008-04-16 08:55:47 51°14.786 2°50.263 80 3.3 69 14.6
2008-04-16 08:55:52 51°14.788 2°50.27 80.2 3.4 65 14.6
2008-04-16 08:55:56 51°14.789 2°50.275 80 3.3 68 14.6
2008-04-16 08:56:01 51°14.791 2°50.282 80 3.3 68 14.6
2008-04-16 08:56:07 51°14.793 2°50.29 80 3.3 67 14.6
2008-04-16 08:56:12 51°14.795 2°50.297 79.8 3.4 64 14.6
2008-04-16 08:56:17 51°14.797 2°50.303 79.9 3.3 70 14.6
2008-04-16 08:56:21 51°14.799 2°50.309 80 3.4 63 14.6
2008-04-16 08:56:27 51°14.801 2°50.317 80.1 3.3 68 14.6
2008-04-16 08:56:32 51°14.802 2°50.324 80.1 3.3 65 14.6
2008-04-16 08:56:37 51°14.804 2°50.33 80.3 3.3 71 14.7
2008-04-16 08:56:41 51°14.806 2°50.336 80.3 3.4 64 14.6
2008-04-16 08:56:46 51°14.807 2°50.342 80.5 3.3 67 14.6
2008-04-16 08:56:52 51°14.81 2°50.35 80.4 3.3 66 14.6
2008-04-16 08:56:57 51°14.812 2°50.357 80.6 3.3 67 14.6
2008-04-16 08:57:01 51°14.813 2°50.362 80.2 3.3 67 14.6
2008-04-16 08:57:07 51°14.815 2°50.37 80.6 3.3 66 14.6
2008-04-16 08:57:11 51°14.817 2°50.375 80.5 3.2 69 14.7
2008-04-16 08:57:17 51°14.819 2°50.383 80.7 3.3 68 14.6
2008-04-16 08:57:21 51°14.82 2°50.389 80.8 3.3 68 14.6
2008-04-16 08:57:27 51°14.822 2°50.397 81 3.3 67 14.6
2008-04-16 08:57:31 51°14.824 2°50.402 80.9 3.3 67 14.7
2008-04-16 08:57:37 51°14.826 2°50.41 80.9 3.3 70 14.7
2008-04-16 08:57:42 51°14.827 2°50.417 81 3.3 69 14.6
2008-04-16 08:57:47 51°14.829 2°50.423 80.7 3.3 67 14.5
2008-04-16 08:57:52 51°14.831 2°50.43 80.4 3.3 68 14.5
2008-04-16 08:57:56 51°14.833 2°50.435 80.3 3.3 68 14.6
2008-04-16 08:58:01 51°14.835 2°50.442 80.3 3.3 68 14.6
2008-04-16 08:58:07 51°14.837 2°50.45 80.3 3.3 65 14.6
2008-04-16 08:58:12 51°14.838 2°50.457 80.1 3.3 70 14.7
2008-04-16 08:58:17 51°14.84 2°50.463 80.1 3.3 66 14.6
2008-04-16 08:58:22 51°14.842 2°50.47 80 3.3 70 14.6
2008-04-16 08:58:28 51°14.844 2°50.478 79.9 3.3 70 14.5
2008-04-16 08:58:32 51°14.846 2°50.483 80.1 3.3 63 14.6
2008-04-16 08:58:37 51°14.847 2°50.49 80.1 3.2 71 14.6
2008-04-16 08:58:41 51°14.849 2°50.495 80.5 3.4 65 14.5
2008-04-16 08:58:47 51°14.851 2°50.503 80.6 3.3 70 14.6
2008-04-16 08:58:52 51°14.853 2°50.51 80.6 3.3 66 14.6
2008-04-16 08:58:56 51°14.854 2°50.515 80.7 3.3 70 14.6
2008-04-16 08:59:01 51°14.856 2°50.522 81 3.3 67 14.6
2008-04-16 08:59:06 51°14.858 2°50.529 81 3.3 71 14.6
2008-04-16 08:59:12 51°14.86 2°50.537 80.9 3.3 67 14.5
2008-04-16 08:59:17 51°14.862 2°50.544 80.9 3.3 69 14.5
2008-04-16 08:59:22 51°14.864 2°50.55 80.6 3.4 64 14.4
2008-04-16 08:59:27 51°14.865 2°50.557 80.5 3.3 71 14.5
2008-04-16 08:59:32 51°14.867 2°50.564 80.4 3.4 64 14.4
2008-04-16 08:59:36 51°14.868 2°50.57 80.2 3.3 67 14.5
2008-04-16 08:59:41 51°14.87 2°50.576 80 3.3 68 14.6
2008-04-16 08:59:47 51°14.873 2°50.584 80.1 3.4 67 14.6
2008-04-16 08:59:51 51°14.874 2°50.59 80 3.3 68 14.6
2008-04-16 08:59:57 51°14.876 2°50.598 79.7 3.4 65 14.6
2008-04-16 09:00:02 51°14.878 2°50.605 79.7 3.3 69 14.5
2008-04-16 09:00:07 51°14.88 2°50.611 80 3.3 67 14.6
2008-04-16 09:00:12 51°14.881 2°50.618 80 3.3 67 14.5
2008-04-16 09:00:17 51°14.883 2°50.625 80.1 3.3 67 14.5
2008-04-16 09:00:22 51°14.885 2°50.631 80.2 3.3 69 14.6
2008-04-16 09:00:27 51°14.887 2°50.638 80.2 3.3 65 14.5
2008-04-16 09:00:32 51°14.889 2°50.645 80.2 3.3 69 14.6
2008-04-16 09:00:37 51°14.891 2°50.652 80.3 3.3 65 14.6
2008-04-16 09:00:41 51°14.892 2°50.657 80 3.3 67 14.6
2008-04-16 09:00:47 51°14.894 2°50.666 80.3 3.4 66 14.5